createdAt,value
2022-11-08T00:00:41.482Z,3.60
2022-11-08T00:03:08.483Z,3.77
2022-11-08T00:05:54.271Z,3.27
2022-11-08T00:08:39.589Z,2.80
2022-11-08T00:11:24.962Z,3.10
2022-11-08T00:13:58.226Z,3.80
2022-11-08T00:16:26.297Z,3.40
2022-11-08T00:18:53.146Z,2.90
2022-11-08T00:21:20.046Z,2.97
2022-11-08T00:23:47.649Z,3.00
2022-11-08T00:26:14.499Z,2.90
2022-11-08T00:28:41.339Z,2.80
2022-11-08T00:31:08.512Z,3.30
2022-11-08T00:33:35.502Z,3.20
2022-11-08T00:36:04.290Z,3.53
2022-11-08T00:38:31.202Z,3.97
2022-11-08T00:40:58.062Z,3.40
2022-11-08T00:43:24.898Z,3.20
2022-11-08T00:45:51.935Z,3.87
2022-11-08T00:48:19.159Z,4.27
2022-11-08T00:50:46.226Z,4.03
2022-11-08T00:53:13.062Z,4.30
2022-11-08T00:55:39.907Z,3.90
2022-11-08T00:58:06.746Z,3.77
2022-11-08T01:00:33.863Z,3.80
2022-11-08T01:03:19.043Z,3.40
2022-11-08T01:05:48.035Z,3.80
2022-11-08T01:08:16.233Z,3.90
2022-11-08T01:10:48.207Z,4.30
2022-11-08T01:13:16.215Z,4.33
2022-11-08T01:15:45.761Z,4.17
2022-11-08T01:18:16.884Z,4.43
2022-11-08T01:20:48.263Z,5.23
2022-11-08T01:23:17.960Z,4.03
2022-11-08T01:25:47.900Z,5.33
2022-11-08T01:28:15.752Z,4.47
2022-11-08T01:30:45.128Z,4.73
2022-11-08T01:33:14.364Z,4.70
2022-11-08T01:35:45.751Z,4.53
2022-11-08T01:38:13.355Z,5.30
2022-11-08T01:40:48.857Z,5.50
2022-11-08T01:43:30.996Z,4.93
2022-11-08T01:46:19.756Z,4.93
2022-11-08T01:49:28.543Z,5.10
2022-11-08T01:52:01.317Z,5.33
2022-11-08T01:54:44.975Z,5.17
2022-11-08T01:57:25.459Z,5.47
2022-11-08T01:59:59.852Z,5.60
2022-11-08T02:02:28.326Z,5.50
2022-11-08T02:04:55.816Z,5.57
2022-11-08T02:07:24.564Z,5.70
2022-11-08T02:09:51.427Z,5.73
2022-11-08T02:12:22.284Z,6.23
2022-11-08T02:14:49.324Z,6.90
2022-11-08T02:17:16.480Z,6.30
2022-11-08T02:19:49.600Z,5.60
2022-11-08T02:22:36.564Z,5.93
2022-11-08T02:25:03.993Z,5.33
2022-11-08T02:27:30.824Z,6.27
2022-11-08T02:29:58.028Z,6.30
2022-11-08T02:32:24.902Z,6.20
2022-11-08T02:34:59.102Z,6.00
2022-11-08T02:37:27.740Z,5.47
2022-11-08T02:39:54.625Z,5.40
2022-11-08T02:42:21.671Z,5.40
2022-11-08T02:44:49.210Z,6.80
2022-11-08T02:47:16.717Z,5.63
2022-11-08T02:49:43.624Z,5.27
2022-11-08T02:52:10.884Z,5.53
2022-11-08T02:54:38.170Z,5.40
2022-11-08T02:57:05.086Z,6.30
2022-11-08T02:59:32.108Z,5.67
2022-11-08T03:02:00.102Z,5.57
2022-11-08T03:04:27.166Z,6.93
2022-11-08T03:06:54.041Z,6.80
2022-11-08T03:09:20.904Z,6.20
2022-11-08T03:11:47.775Z,6.17
2022-11-08T03:14:14.664Z,5.40
2022-11-08T03:16:41.489Z,5.90
2022-11-08T03:19:08.340Z,5.60
2022-11-08T03:21:36.555Z,5.40
2022-11-08T03:24:04.974Z,5.73
2022-11-08T03:26:32.952Z,5.33
2022-11-08T03:28:59.805Z,6.10
2022-11-08T03:31:26.662Z,5.97
2022-11-08T03:33:53.501Z,6.20
2022-11-08T03:36:20.393Z,5.80
2022-11-08T03:38:47.233Z,5.63
2022-11-08T03:41:14.086Z,5.23
2022-11-08T03:43:41.569Z,6.33
2022-11-08T03:46:08.397Z,6.27
2022-11-08T03:48:35.292Z,5.50
2022-11-08T03:51:02.169Z,5.50
2022-11-08T03:53:29.030Z,5.80
2022-11-08T03:55:59.897Z,5.80
2022-11-08T03:58:27.086Z,5.40
2022-11-08T04:00:53.954Z,5.50
2022-11-08T04:03:20.827Z,6.13
2022-11-08T04:05:47.801Z,5.10
2022-11-08T04:08:14.870Z,7.10
2022-11-08T04:10:42.442Z,6.60
2022-11-08T04:13:28.586Z,6.40
2022-11-08T04:15:57.790Z,6.30
2022-11-08T04:18:43.585Z,7.20
2022-11-08T04:21:18.798Z,6.27
2022-11-08T04:23:48.984Z,7.00
2022-11-08T04:26:17.214Z,7.73
2022-11-08T04:28:44.375Z,7.37
2022-11-08T04:31:18.847Z,6.17
2022-11-08T04:33:46.653Z,6.70
2022-11-08T04:36:17.457Z,7.60
2022-11-08T04:38:51.648Z,7.00
2022-11-08T04:41:22.760Z,7.00
2022-11-08T04:43:52.764Z,6.77
2022-11-08T04:46:27.530Z,6.90
2022-11-08T04:48:58.802Z,6.73
2022-11-08T04:51:30.874Z,6.90
2022-11-08T04:54:02.680Z,6.90
2022-11-08T04:56:30.756Z,6.80
2022-11-08T04:59:00.563Z,7.20
2022-11-08T05:01:31.723Z,7.13
2022-11-08T05:03:59.325Z,7.07
2022-11-08T05:06:31.886Z,6.97
2022-11-08T05:09:00.329Z,6.77
2022-11-08T05:11:30.003Z,7.13
2022-11-08T05:13:58.034Z,7.57
2022-11-08T05:16:30.384Z,7.20
2022-11-08T05:18:57.563Z,7.90
2022-11-08T05:21:43.645Z,6.90
2022-11-08T05:24:17.448Z,6.93
2022-11-08T05:26:48.279Z,5.83
2022-11-08T05:29:17.228Z,7.47
2022-11-08T05:31:44.416Z,7.10
2022-11-08T05:34:11.274Z,6.30
2022-11-08T05:36:38.134Z,4.90
2022-11-08T05:39:05.000Z,6.20
2022-11-08T05:41:31.847Z,5.90
2022-11-08T05:43:58.769Z,6.50
2022-11-08T05:46:25.701Z,6.30
2022-11-08T05:48:52.977Z,6.50
2022-11-08T05:51:21.366Z,6.10
2022-11-08T05:53:49.074Z,7.27
2022-11-08T05:56:17.801Z,7.00
2022-11-08T05:58:45.704Z,6.70
2022-11-08T06:01:17.559Z,5.90
2022-11-08T06:03:45.858Z,6.83
2022-11-08T06:06:20.730Z,7.00
2022-11-08T06:08:51.684Z,6.10
2022-11-08T06:11:27.304Z,5.90
2022-11-08T06:13:55.938Z,5.60
2022-11-08T06:16:25.222Z,6.50
2022-11-08T06:18:52.493Z,6.80
2022-11-08T06:21:22.120Z,5.50
2022-11-08T06:23:54.475Z,6.23
2022-11-08T06:26:24.313Z,5.70
2022-11-08T06:28:51.549Z,6.07
2022-11-08T06:31:18.561Z,5.50
2022-11-08T06:33:45.945Z,5.80
2022-11-08T06:36:12.928Z,4.97
2022-11-08T06:38:39.787Z,6.47
2022-11-08T06:41:06.637Z,6.53
2022-11-08T06:43:34.017Z,6.60
2022-11-08T06:46:04.192Z,6.37
2022-11-08T06:48:35.371Z,7.37
2022-11-08T06:51:04.052Z,7.63
2022-11-08T06:53:31.898Z,7.67
2022-11-08T06:56:03.306Z,7.57
2022-11-08T06:58:31.418Z,9.00
2022-11-08T07:01:02.249Z,8.33
2022-11-08T07:03:29.103Z,8.87
2022-11-08T07:05:55.958Z,7.17
2022-11-08T07:08:24.232Z,7.03
2022-11-08T07:10:51.464Z,8.40
2022-11-08T07:13:18.986Z,9.30
2022-11-08T07:15:47.907Z,9.47
2022-11-08T07:18:18.336Z,9.10
2022-11-08T07:20:45.999Z,8.30
2022-11-08T07:23:14.695Z,8.17
2022-11-08T07:25:42.011Z,7.20
2022-11-08T07:28:17.560Z,6.60
2022-11-08T07:30:46.816Z,7.27
2022-11-08T07:33:16.639Z,6.30
2022-11-08T07:35:47.122Z,6.73
2022-11-08T07:38:14.026Z,6.93
2022-11-08T07:40:41.040Z,6.80
2022-11-08T07:43:12.615Z,6.57
2022-11-08T07:45:42.020Z,6.80
2022-11-08T07:48:13.883Z,6.87
2022-11-08T07:50:46.076Z,6.07
2022-11-08T07:53:13.059Z,5.87
2022-11-08T07:55:41.135Z,5.70
2022-11-08T07:58:10.970Z,4.40
2022-11-08T08:00:40.947Z,4.70
2022-11-08T08:03:12.923Z,4.53
2022-11-08T08:05:44.244Z,3.63
2022-11-08T08:08:14.106Z,3.13
2022-11-08T08:10:41.858Z,2.43
2022-11-08T08:13:09.280Z,3.07
2022-11-08T08:15:36.392Z,2.60
2022-11-08T08:18:07.552Z,3.00
2022-11-08T08:20:37.276Z,3.07
2022-11-08T08:23:05.713Z,2.93
2022-11-08T08:25:32.628Z,3.07
2022-11-08T08:28:01.657Z,5.03
2022-11-08T08:30:31.436Z,4.80
2022-11-08T08:33:27.346Z,4.30
2022-11-08T08:35:56.673Z,3.00
2022-11-08T08:38:23.749Z,3.03
2022-11-08T08:40:51.583Z,2.83
2022-11-08T08:43:19.914Z,2.57
2022-11-08T08:45:47.309Z,3.90
2022-11-08T08:48:14.400Z,3.20
2022-11-08T08:50:41.705Z,3.10
2022-11-08T08:53:10.156Z,2.90
2022-11-08T08:55:42.712Z,2.77
2022-11-08T08:58:10.899Z,3.50
2022-11-08T09:03:59.956Z,3.50
2022-11-08T09:06:26.817Z,3.20
2022-11-08T09:08:53.695Z,3.27
2022-11-08T09:11:20.560Z,2.90
2022-11-08T09:13:47.417Z,2.80
2022-11-08T09:16:14.430Z,3.23
2022-11-08T09:18:41.922Z,2.83
2022-11-08T09:21:08.917Z,2.50
2022-11-08T09:23:35.901Z,3.20
2022-11-08T09:26:06.002Z,3.00
2022-11-08T09:28:36.383Z,3.23
2022-11-08T09:31:11.814Z,2.80
2022-11-08T09:33:41.009Z,3.10
2022-11-08T09:36:13.503Z,3.23
2022-11-08T09:38:41.917Z,3.47
2022-11-08T09:41:24.342Z,3.73
2022-11-08T09:44:27.459Z,2.90
2022-11-08T09:47:10.861Z,3.07
2022-11-08T09:50:12.449Z,2.60
2022-11-08T09:52:43.275Z,2.80
2022-11-08T09:55:40.496Z,2.87
2022-11-08T09:58:47.307Z,2.97
2022-11-08T10:01:14.558Z,2.50
2022-11-08T10:03:50.038Z,3.30
2022-11-08T10:06:49.587Z,3.20
2022-11-08T10:09:49.838Z,3.50
2022-11-08T10:12:38.464Z,3.10
2022-11-08T10:15:29.794Z,3.20
2022-11-08T10:18:41.569Z,3.20
2022-11-08T10:21:56.148Z,3.07
2022-11-08T10:24:52.464Z,3.23
2022-11-08T10:27:43.129Z,3.17
2022-11-08T10:30:44.328Z,3.03
2022-11-08T10:33:29.203Z,3.00
2022-11-08T10:36:10.079Z,3.10
2022-11-08T10:39:04.118Z,3.17
2022-11-08T10:42:11.168Z,2.73
2022-11-08T10:44:41.599Z,2.43
2022-11-08T10:47:31.066Z,2.80
2022-11-08T10:50:03.718Z,2.83
2022-11-08T10:52:58.303Z,2.57
2022-11-08T10:55:36.683Z,2.53
2022-11-08T10:58:40.750Z,3.00
2022-11-08T11:01:22.600Z,3.00
2022-11-08T11:03:52.967Z,2.27
2022-11-08T11:06:33.335Z,2.30
2022-11-08T11:09:19.148Z,2.70
2022-11-08T11:11:46.427Z,2.83
2022-11-08T11:14:22.750Z,2.47
2022-11-08T11:17:18.663Z,2.80
2022-11-08T11:19:57.232Z,2.50
2022-11-08T11:22:34.587Z,2.27
2022-11-08T11:25:22.640Z,2.20
2022-11-08T11:28:00.468Z,2.43
2022-11-08T11:30:34.640Z,2.53
2022-11-08T11:33:29.866Z,2.20
2022-11-08T11:36:15.381Z,2.50
2022-11-08T11:39:10.353Z,2.23
2022-11-08T11:41:53.451Z,2.57
2022-11-08T11:44:41.408Z,2.63
2022-11-08T11:47:50.697Z,2.40
2022-11-08T11:50:35.341Z,2.70
2022-11-08T11:53:16.712Z,2.50
2022-11-08T11:56:20.456Z,2.60
2022-11-08T11:59:01.456Z,2.40
2022-11-08T12:01:55.046Z,2.73
2022-11-08T12:05:11.683Z,2.10
2022-11-08T12:08:02.470Z,2.30
2022-11-08T12:11:13.395Z,2.50
2022-11-08T12:14:14.484Z,2.43
2022-11-08T12:17:35.272Z,3.43
2022-11-08T12:20:26.694Z,2.00
2022-11-08T12:23:27.636Z,2.60
2022-11-08T12:26:32.412Z,2.33
2022-11-08T12:29:24.202Z,2.40
2022-11-08T12:32:10.102Z,2.43
2022-11-08T12:35:04.773Z,2.50
2022-11-08T12:38:26.834Z,2.10
2022-11-08T12:41:23.168Z,2.57
2022-11-08T12:44:17.698Z,2.53
2022-11-08T12:47:26.611Z,2.43
2022-11-08T12:50:23.977Z,2.20
2022-11-08T12:53:26.517Z,2.50
2022-11-08T12:55:58.279Z,2.73
2022-11-08T12:58:48.841Z,2.33
2022-11-08T13:01:19.541Z,2.53
2022-11-08T13:04:20.396Z,2.37
2022-11-08T13:07:05.207Z,2.60
2022-11-08T13:10:18.953Z,2.67
2022-11-08T13:13:46.089Z,2.33
2022-11-08T13:16:25.049Z,2.90
2022-11-08T13:19:07.540Z,2.30
2022-11-08T13:21:41.878Z,2.27
2022-11-08T13:24:42.248Z,2.47
2022-11-08T13:27:24.521Z,2.13
2022-11-08T13:29:53.263Z,2.30
2022-11-08T13:33:00.658Z,2.40
2022-11-08T13:35:47.961Z,2.10
2022-11-08T13:38:51.615Z,2.50
2022-11-08T13:41:25.404Z,2.20
2022-11-08T13:43:56.101Z,2.40
2022-11-08T13:46:25.540Z,2.57
2022-11-08T13:48:58.381Z,2.90
2022-11-08T13:51:40.161Z,2.57
2022-11-08T13:54:22.351Z,2.50
2022-11-08T13:57:01.051Z,2.47
2022-11-08T13:59:31.044Z,2.80
2022-11-08T14:02:29.617Z,2.43
2022-11-08T14:05:31.479Z,2.20
2022-11-08T14:08:19.712Z,3.33
2022-11-08T14:11:41.954Z,2.60
2022-11-08T14:14:43.496Z,2.43
2022-11-08T14:17:31.441Z,2.67
2022-11-08T14:20:46.210Z,3.10
2022-11-08T14:23:19.273Z,2.70
2022-11-08T14:26:03.397Z,2.90
2022-11-08T14:28:39.731Z,2.60
2022-11-08T14:31:33.107Z,2.90
2022-11-08T14:34:02.109Z,3.73
2022-11-08T14:36:32.273Z,3.30
2022-11-08T14:39:17.947Z,2.40
2022-11-08T14:41:55.531Z,3.43
2022-11-08T14:44:24.581Z,2.67
2022-11-08T14:46:53.193Z,2.80
2022-11-08T14:49:36.443Z,2.83
2022-11-08T14:52:31.011Z,2.87
2022-11-08T14:55:11.623Z,3.20
2022-11-08T14:57:45.728Z,3.03
2022-11-08T15:00:26.947Z,3.80
2022-11-08T15:03:03.156Z,2.60
2022-11-08T15:05:47.294Z,2.90
2022-11-08T15:08:36.668Z,2.80
2022-11-08T15:11:28.293Z,2.47
2022-11-08T15:14:16.701Z,3.23
2022-11-08T15:16:49.922Z,2.73
2022-11-08T15:20:02.989Z,2.50
2022-11-08T15:22:36.731Z,3.13
2022-11-08T15:25:24.865Z,2.90
2022-11-08T15:28:12.503Z,3.00
2022-11-08T15:30:43.897Z,3.03
2022-11-08T15:33:37.001Z,3.07
2022-11-08T15:36:15.384Z,2.73
2022-11-08T15:38:49.121Z,3.43
2022-11-08T15:41:41.694Z,2.60
2022-11-08T15:44:25.820Z,2.87
2022-11-08T15:46:55.598Z,3.17
2022-11-08T15:49:29.576Z,3.20
2022-11-08T15:51:58.648Z,2.27
2022-11-08T15:54:26.909Z,2.87
2022-11-08T15:56:56.564Z,3.47
2022-11-08T15:59:30.035Z,2.53
2022-11-08T16:02:01.844Z,3.20
2022-11-08T16:04:29.987Z,3.10
2022-11-08T16:06:58.061Z,2.70
2022-11-08T16:09:25.065Z,3.70
2022-11-08T16:11:52.174Z,2.80
2022-11-08T16:14:24.824Z,4.07
2022-11-08T16:16:51.911Z,4.13
2022-11-08T16:19:24.438Z,3.00
2022-11-08T16:21:52.783Z,3.97
2022-11-08T16:24:19.752Z,3.57
2022-11-08T16:26:48.391Z,3.93
2022-11-08T16:29:23.754Z,3.67
2022-11-08T16:31:52.088Z,4.23
2022-11-08T16:34:19.842Z,3.63
2022-11-08T16:36:49.627Z,3.50
2022-11-08T16:39:22.888Z,3.90
2022-11-08T16:41:49.771Z,3.20
2022-11-08T16:44:16.731Z,4.00
2022-11-08T16:46:43.738Z,4.00
2022-11-08T16:49:32.414Z,3.97
2022-11-08T16:51:59.282Z,3.30
2022-11-08T16:54:28.400Z,3.03
2022-11-08T16:57:20.724Z,3.40
2022-11-08T16:59:43.678Z,4.10
2022-11-08T17:02:30.737Z,3.17
2022-11-08T17:04:57.614Z,3.20
2022-11-08T17:07:28.154Z,3.50
2022-11-08T17:09:55.154Z,3.93
2022-11-08T17:12:22.071Z,3.73
2022-11-08T17:14:49.091Z,4.17
2022-11-08T17:17:16.067Z,4.77
2022-11-08T17:19:42.956Z,4.50
2022-11-08T17:22:09.851Z,4.73
2022-11-08T17:24:37.060Z,4.77
2022-11-08T17:27:04.001Z,4.23
2022-11-08T17:29:30.865Z,4.10
2022-11-08T17:31:57.733Z,4.70
2022-11-08T17:34:24.651Z,4.53
2022-11-08T17:36:52.833Z,5.00
2022-11-08T17:39:19.717Z,3.87
2022-11-08T17:41:46.828Z,4.40
2022-11-08T17:44:14.551Z,5.07
2022-11-08T17:46:41.468Z,5.37
2022-11-08T17:49:09.498Z,4.70
2022-11-08T17:51:36.532Z,4.90
2022-11-08T17:54:03.684Z,5.30
2022-11-08T17:56:31.116Z,4.43
2022-11-08T17:58:57.994Z,4.00
2022-11-08T18:01:25.092Z,4.13
2022-11-08T18:03:52.051Z,4.50
2022-11-08T18:06:19.154Z,4.90
2022-11-08T18:08:46.052Z,5.03
2022-11-08T18:11:13.096Z,5.17
2022-11-08T18:13:40.160Z,4.70
2022-11-08T18:16:18.749Z,5.20
2022-11-08T18:18:47.169Z,5.17
2022-11-08T18:21:16.287Z,6.10
2022-11-08T18:23:47.055Z,5.40
2022-11-08T18:26:16.079Z,5.07
2022-11-08T18:28:44.992Z,4.33
2022-11-08T18:31:18.152Z,4.27
2022-11-08T18:33:45.814Z,4.87
2022-11-08T18:36:18.902Z,4.23
2022-11-08T18:38:49.010Z,4.13
2022-11-08T18:41:28.914Z,5.30
2022-11-08T18:43:58.988Z,5.10
2022-11-08T18:46:32.575Z,4.43
2022-11-08T18:48:59.825Z,4.53
2022-11-08T18:51:26.917Z,4.80
2022-11-08T18:53:53.966Z,5.33
2022-11-08T18:56:22.006Z,5.40
2022-11-08T18:58:49.847Z,5.30
2022-11-08T19:01:17.426Z,4.53
2022-11-08T19:03:45.626Z,4.50
2022-11-08T19:06:12.518Z,4.93
2022-11-08T19:08:39.406Z,4.90
2022-11-08T19:11:12.894Z,4.73
2022-11-08T19:13:41.414Z,5.00
2022-11-08T19:16:17.630Z,5.13
2022-11-08T19:18:46.746Z,4.47
2022-11-08T19:21:34.373Z,4.00
2022-11-08T19:24:01.406Z,4.93
2022-11-08T19:26:29.179Z,4.93
2022-11-08T19:28:57.435Z,5.40
2022-11-08T19:31:25.968Z,4.80
2022-11-08T19:33:54.324Z,5.37
2022-11-08T19:36:28.841Z,4.50
2022-11-08T19:38:58.213Z,5.50
2022-11-08T19:41:28.918Z,4.50
2022-11-08T19:43:55.947Z,4.60
2022-11-08T19:46:28.973Z,5.10
2022-11-08T19:48:57.091Z,5.30
2022-11-08T19:51:29.009Z,4.40
2022-11-08T19:54:10.219Z,3.87
2022-11-08T19:59:24.899Z,4.10
2022-11-08T20:01:52.024Z,4.40
2022-11-08T20:04:19.100Z,4.60
2022-11-08T20:06:46.396Z,5.03
2022-11-08T20:09:13.446Z,4.23
2022-11-08T20:11:41.973Z,4.00
2022-11-08T20:14:12.671Z,3.80
2022-11-08T20:16:42.982Z,4.17
2022-11-08T20:19:16.381Z,4.90
2022-11-08T20:21:45.946Z,3.93
2022-11-08T20:24:14.924Z,4.63
2022-11-08T20:26:43.261Z,4.87
2022-11-08T20:29:10.917Z,4.70
2022-11-08T20:31:39.056Z,4.73
2022-11-08T20:34:10.146Z,5.17
2022-11-08T20:36:38.618Z,5.13
2022-11-08T20:39:07.978Z,4.67
2022-11-08T20:41:37.233Z,2.80
2022-11-08T20:44:06.497Z,4.20
2022-11-08T20:46:36.446Z,4.70
2022-11-08T20:49:05.699Z,4.40
2022-11-08T20:51:34.164Z,3.67
2022-11-08T20:54:01.892Z,4.27
2022-11-08T20:56:29.726Z,4.00
2022-11-08T20:58:57.135Z,3.70
2022-11-08T21:01:27.899Z,3.40
2022-11-08T21:03:56.160Z,3.37
2022-11-08T21:06:26.722Z,3.93
2022-11-08T21:09:01.012Z,3.43
2022-11-08T21:11:34.494Z,3.47
2022-11-08T21:14:03.840Z,3.80
2022-11-08T21:16:35.373Z,4.00
2022-11-08T21:19:06.180Z,4.03
2022-11-08T21:21:33.201Z,3.60
2022-11-08T21:24:00.236Z,4.03
2022-11-08T21:26:27.164Z,3.30
2022-11-08T21:28:54.477Z,4.10
2022-11-08T21:31:21.531Z,4.43
2022-11-08T21:33:48.664Z,3.90
2022-11-08T21:36:17.194Z,3.37
2022-11-08T21:38:44.485Z,4.10
2022-11-08T21:41:11.757Z,3.77
2022-11-08T21:43:43.377Z,3.87
2022-11-08T21:46:26.701Z,3.70
2022-11-08T21:48:58.293Z,3.90
2022-11-08T21:51:27.171Z,3.63
2022-11-08T21:53:56.989Z,4.20
2022-11-08T21:56:29.740Z,4.67
2022-11-08T21:58:57.218Z,4.27
2022-11-08T22:01:28.817Z,4.40
2022-11-08T22:03:59.614Z,3.67
2022-11-08T22:06:28.444Z,4.20
2022-11-08T22:08:55.897Z,4.17
2022-11-08T22:11:23.197Z,3.60
2022-11-08T22:13:50.101Z,4.80
2022-11-08T22:16:16.969Z,5.27
2022-11-08T22:19:04.876Z,4.17
2022-11-08T22:21:49.357Z,4.10
2022-11-08T22:24:21.895Z,3.57
2022-11-08T22:26:51.983Z,3.90
2022-11-08T22:29:19.657Z,3.77
2022-11-08T22:31:47.105Z,4.00
2022-11-08T22:34:14.799Z,4.73
2022-11-08T22:36:45.599Z,4.20
2022-11-08T22:39:19.721Z,4.53
2022-11-08T22:41:50.646Z,3.43
2022-11-08T22:44:19.357Z,4.10
2022-11-08T22:46:47.813Z,3.40
2022-11-08T22:49:16.222Z,4.00
2022-11-08T22:51:44.426Z,4.17
2022-11-08T22:54:12.101Z,3.57
2022-11-08T22:56:40.182Z,4.23
2022-11-08T22:59:07.242Z,4.27
2022-11-08T23:01:34.747Z,4.27
2022-11-08T23:04:02.107Z,3.63
2022-11-08T23:06:29.179Z,3.70
2022-11-08T23:08:56.259Z,3.40
2022-11-08T23:11:41.986Z,4.80
2022-11-08T23:14:35.447Z,4.43
2022-11-08T23:17:05.367Z,4.23
2022-11-08T23:19:50.976Z,4.30
2022-11-08T23:22:37.114Z,4.17
2022-11-08T23:25:05.044Z,4.13
2022-11-08T23:27:50.744Z,4.30
2022-11-08T23:30:37.675Z,4.43
2022-11-08T23:33:06.684Z,4.10
2022-11-08T23:35:33.988Z,4.30
2022-11-08T23:38:00.880Z,4.47
2022-11-08T23:40:46.549Z,3.60
2022-11-08T23:43:38.386Z,3.83
2022-11-08T23:46:12.560Z,4.23
2022-11-08T23:48:40.660Z,4.80
2022-11-08T23:51:08.227Z,4.60
2022-11-08T23:53:37.396Z,3.60
2022-11-08T23:56:05.729Z,4.47
2022-11-08T23:58:33.771Z,4.13
